West Wardsboro, VT (05360)

5:19 PM EDT on September 25, 2016 (GMT -0400)
Stratton Mountain | | Change Station
Active Advisory: Frost Advisory

Elev 3159 ft 43.10 °N, 72.92 °W | Updated 4 minutes ago

Clear
Clear
41.5 °F
Feels Like 38 °F
N
6.0
Wind Variable Wind from ENE

Today
High -- | Low -- °F
--% Chance of Precip.
Yesterday
High -- | Low -- °F
Precip. -- in
Pressure 30.14 in
Visibility 10.0 miles
Clouds Clear
Windchill 38 °F
Dew Point -13 °F
Humidity 9%
Rainfall 0.00 in
Snow Depth Not available.
6:42 AM 6:42 PM
Waning Crescent, 25% visible
METAR KDDH 252054Z AUTO 31007KT 10SM CLR 17/02 A3013 RMK AO2 SLP206 T01670017 56014
Pressure 30.14 in
Visibility 10.0 miles
Clouds Clear
Windchill 38 °F
Dew Point -13 °F
Humidity 9%
Rainfall 0.00 in
Snow Depth Not available.
6:42 AM 6:42 PM
Waning Crescent, 25% visible
METAR KDDH 252054Z AUTO 31007KT 10SM CLR 17/02 A3013 RMK AO2 SLP206 T01670017 56014

10-Day Weather Forecast

Almanac

Astronomy

Sep. 25, 2016 Rise Set
Actual Time
Civil Twilight
Nautical Twilight
Astronomical Twilight
Moon
Length of Visible Light
Length of Day
Tomorrow will be .
, % of the Moon is Illuminated

Today's Extremes

State Highs State Lows

Community

WunderPhotos

Upload Photos

1,941,732 photos uploaded!

WunderBlog® & News

Nearby

Air Quality

  Air Quality AQ Index Pollutant
Not available.

Snow Depth

Station Depth Elevation

Earthquake Activity

City Distance Mag. Time & Date
Minimum magnitude displayed is 2.5.

Coastal Water Temperatures

Place Temperature

Stations

Nearby Weather Stations

Station Location Temp. Windchill Dew Point Humidity Wind Precip. Elev Updated Type
                   

Watches & Warnings

Frost Advisory
Issued: 3:14 PM EDT Sep. 25, 2016 – National Weather Service

... Frost advisory remains in effect from 2 am to 8 am EDT
Monday...

* locations... Mohawk Valley... Saratoga region... capital region...
   Taconics... Mid Hudson valley... eastern Catskills... northwest
Connecticut... Berkshires and all of southern Vermont.

* Temperatures... in the middle 30s.

* Impacts... potential frost damage to sensitive plants and crops.

Precautionary/preparedness actions...

A frost advisory means that widespread frost is expected.
Sensitive outdoor plants may be killed if left uncovered.